Huvudsida
METAR-TAF:

METAR-TAF

Flygplatser :

Chuuk International Airport

Weno, Mikronesien

latitud: 07-28N, longitud: 151-51E, höjd: 3 m

Aktuellt väderrapport

Denna rapport gjordes för 28 minuter sedan, klockan 10:55 UTC
Vind 3 kt varierande vindriktning
Temperatur 27°C
Fuktighet 84%
Tryck 1011 hPa
Sikt: 24.1 km
Få moln på en höjd av 1400 ft
Spridda moln på en höjd av 12000 ft
Mulet på en höjd av 28000 ft

METAR: PTKK 191055Z VRB03KT 15SM FEW014 SCT120 OVC280 27/24 A2986 RMK SLP113 T02670243

Tid: 21:23 (11:23 UTC)

Väderprognos

Denna rapport gjordes för 5 timmar och 57 minuter sedan, klockan 05:26 UTC
Prognos gäller från 19 kl. 06 UTC till 20 kl. 06 UTC
Vind 5 kt varierande vindriktning
Sikt: 10 km
Spridda moln på en höjd av 1400 ft
Brutna moln på en höjd av 12000 ft
skurar i närheten

TAF: PTKK 190526Z 1906/2006 VRB05KT P6SM VCSH SCT014 BKN120

Aktuella väderrapporter och prognoser från 4000 flygplatser (METAR- och TAF-rapporter).

De tillgängliga stationerna syns som gula och röda prickar på kartan.

För musen över prickarna för att se namnen på stationerna.

Klicka sedan för att få väderrapporter och prognoser.

För att ändra kartan: Klicka på de gröna knapparna med ett svart kors på för att zooma in; den gröna knappen med ett streck på för att zooma ut; eller på de gröna pilarna för angränsande kartor.


METAR-TAF: